createdAt,value
2022-12-25T00:00:52.902Z,11.90
2022-12-25T00:01:52.898Z,12.00
2022-12-25T00:02:52.946Z,12.30
2022-12-25T00:03:53.131Z,11.90
2022-12-25T00:04:52.827Z,12.00
2022-12-25T00:05:52.826Z,11.70
2022-12-25T00:06:52.797Z,11.30
2022-12-25T00:07:52.798Z,11.80
2022-12-25T00:08:52.772Z,11.40
2022-12-25T00:09:52.766Z,11.30
2022-12-25T00:10:52.750Z,11.60
2022-12-25T00:11:52.754Z,11.60
2022-12-25T00:12:52.744Z,11.20
2022-12-25T00:13:52.719Z,12.40
2022-12-25T00:14:52.709Z,12.50
2022-12-25T00:15:52.756Z,12.40
2022-12-25T00:16:52.688Z,11.40
2022-12-25T00:17:52.706Z,12.30
2022-12-25T00:18:52.676Z,12.60
2022-12-25T00:19:52.661Z,12.10
2022-12-25T00:20:52.641Z,12.20
2022-12-25T00:21:52.636Z,11.90
2022-12-25T00:22:52.628Z,13.10
2022-12-25T00:23:52.625Z,12.10
2022-12-25T00:24:52.592Z,12.90
2022-12-25T00:25:52.591Z,12.80
2022-12-25T00:26:52.596Z,13.20
2022-12-25T00:27:52.586Z,12.60
2022-12-25T00:28:52.563Z,13.50
2022-12-25T00:29:52.564Z,12.80
2022-12-25T00:30:52.546Z,12.80
2022-12-25T00:31:52.654Z,14.30
2022-12-25T00:32:52.517Z,13.50
2022-12-25T00:33:52.564Z,14.00
2022-12-25T00:34:52.498Z,14.10
2022-12-25T00:35:52.484Z,13.80
2022-12-25T00:36:52.504Z,14.60
2022-12-25T00:37:52.467Z,13.30
2022-12-25T00:38:52.463Z,13.00
2022-12-25T00:39:52.434Z,13.20
2022-12-25T00:40:52.438Z,13.20
2022-12-25T00:41:52.413Z,12.90
2022-12-25T00:42:52.411Z,13.00
2022-12-25T00:43:52.396Z,12.90
2022-12-25T00:44:52.399Z,12.60
2022-12-25T00:45:52.431Z,14.70
2022-12-25T00:46:52.403Z,15.10
2022-12-25T00:47:52.349Z,16.30
2022-12-25T00:48:52.330Z,15.40
2022-12-25T00:49:52.360Z,15.60
2022-12-25T00:50:52.315Z,16.40
2022-12-25T00:51:52.319Z,15.50
2022-12-25T00:52:52.288Z,15.20
2022-12-25T00:53:52.282Z,14.50
2022-12-25T00:54:52.279Z,13.80
2022-12-25T00:55:52.287Z,15.30
2022-12-25T00:56:52.247Z,13.30
2022-12-25T00:57:59.745Z,14.10
2022-12-25T00:58:52.225Z,12.80
2022-12-25T00:59:52.232Z,13.10
2022-12-25T01:00:52.272Z,12.90
2022-12-25T01:01:52.535Z,12.60
2022-12-25T01:02:52.420Z,13.00
2022-12-25T01:03:52.270Z,13.60
2022-12-25T01:04:52.224Z,13.30
2022-12-25T01:05:52.189Z,14.30
2022-12-25T01:06:52.151Z,14.70
2022-12-25T01:07:52.143Z,14.50
2022-12-25T01:08:52.120Z,15.00
2022-12-25T01:09:52.142Z,14.30
2022-12-25T01:10:52.141Z,14.60
2022-12-25T01:11:52.121Z,13.90
2022-12-25T01:12:52.078Z,14.50
2022-12-25T01:13:52.070Z,14.00
2022-12-25T01:14:52.064Z,13.70
2022-12-25T01:15:52.100Z,13.30
2022-12-25T01:16:52.178Z,12.60
2022-12-25T01:17:52.035Z,13.40
2022-12-25T01:18:52.012Z,13.00
2022-12-25T01:19:52.006Z,13.50
2022-12-25T01:20:51.982Z,13.90
2022-12-25T01:21:52.002Z,14.70
2022-12-25T01:22:51.955Z,13.40
2022-12-25T01:23:51.958Z,13.30
2022-12-25T01:24:51.943Z,14.10
2022-12-25T01:25:51.947Z,12.90
2022-12-25T01:26:51.923Z,13.90
2022-12-25T01:27:51.913Z,12.50
2022-12-25T01:28:51.895Z,14.30
2022-12-25T01:29:51.891Z,14.00
2022-12-25T01:30:51.871Z,13.10
2022-12-25T01:31:51.906Z,12.40
2022-12-25T01:32:51.889Z,13.40
2022-12-25T01:33:51.840Z,13.20
2022-12-25T01:34:55.843Z,14.80
2022-12-25T01:35:51.828Z,14.50
2022-12-25T01:36:51.824Z,14.70
2022-12-25T01:37:51.815Z,16.10
2022-12-25T01:38:51.784Z,13.40
2022-12-25T01:39:51.775Z,13.60
2022-12-25T01:40:51.769Z,12.20
2022-12-25T01:41:51.765Z,12.70
2022-12-25T01:42:51.763Z,11.70
2022-12-25T01:43:51.753Z,12.70
2022-12-25T01:44:52.012Z,12.00
2022-12-25T01:45:51.751Z,11.90
2022-12-25T01:46:51.724Z,11.90
2022-12-25T01:47:51.681Z,12.50
2022-12-25T01:48:51.677Z,13.50
2022-12-25T01:49:51.673Z,14.10
2022-12-25T01:50:51.648Z,14.20
2022-12-25T01:51:51.673Z,13.20
2022-12-25T01:52:51.631Z,13.30
2022-12-25T01:53:51.648Z,11.80
2022-12-25T01:54:51.607Z,13.00
2022-12-25T01:55:51.596Z,12.90
2022-12-25T01:56:51.589Z,12.90
2022-12-25T01:57:51.586Z,12.60
2022-12-25T01:58:51.570Z,11.70
2022-12-25T01:59:51.548Z,10.60
2022-12-25T02:00:51.642Z,11.00
2022-12-25T02:01:51.677Z,10.70
2022-12-25T02:02:51.645Z,9.70
2022-12-25T02:03:51.519Z,10.90
2022-12-25T02:04:51.512Z,10.00
2022-12-25T02:05:51.487Z,10.20
2022-12-25T02:06:51.481Z,9.90
2022-12-25T02:07:51.472Z,10.30
2022-12-25T02:08:51.452Z,10.60
2022-12-25T02:09:51.490Z,11.20
2022-12-25T02:10:51.433Z,10.40
2022-12-25T02:11:51.437Z,10.90
2022-12-25T02:12:51.438Z,10.70
2022-12-25T02:13:51.403Z,10.20
2022-12-25T02:14:51.391Z,9.80
2022-12-25T02:15:51.393Z,9.30
2022-12-25T02:16:56.584Z,9.20
2022-12-25T02:17:51.370Z,10.10
2022-12-25T02:18:51.355Z,9.20
2022-12-25T02:19:51.345Z,10.40
2022-12-25T02:20:51.315Z,8.70
2022-12-25T02:21:51.315Z,8.70
2022-12-25T02:22:51.294Z,8.90
2022-12-25T02:23:51.288Z,9.60
2022-12-25T02:24:51.313Z,9.50
2022-12-25T02:25:51.292Z,8.90
2022-12-25T02:26:51.271Z,9.20
2022-12-25T02:27:51.244Z,8.80
2022-12-25T02:28:51.245Z,9.10
2022-12-25T02:29:51.223Z,8.90
2022-12-25T02:30:51.205Z,8.60
2022-12-25T02:31:51.249Z,8.20
2022-12-25T02:32:51.209Z,9.00
2022-12-25T02:33:51.213Z,9.00
2022-12-25T02:34:51.161Z,8.00
2022-12-25T02:35:51.167Z,8.30
2022-12-25T02:36:51.165Z,9.00
2022-12-25T02:37:51.132Z,9.40
2022-12-25T02:38:51.128Z,9.60
2022-12-25T02:39:51.122Z,9.30
2022-12-25T02:40:51.103Z,10.40
2022-12-25T02:41:51.111Z,9.20
2022-12-25T02:42:51.082Z,10.10
2022-12-25T02:43:51.077Z,9.60
2022-12-25T02:44:51.160Z,9.20
2022-12-25T02:45:51.126Z,8.80
2022-12-25T02:46:51.073Z,9.20
2022-12-25T02:47:51.035Z,8.00
2022-12-25T02:48:51.022Z,8.00
2022-12-25T02:49:51.012Z,7.20
2022-12-25T02:50:50.999Z,7.10
2022-12-25T02:51:50.992Z,7.10
2022-12-25T02:52:50.961Z,6.80
2022-12-25T02:53:50.962Z,7.40
2022-12-25T02:54:50.959Z,6.80
2022-12-25T02:55:50.963Z,7.90
2022-12-25T02:56:50.927Z,7.50
2022-12-25T02:57:50.931Z,7.40
2022-12-25T03:00:06.625Z,8.50
2022-12-25T03:01:06.664Z,7.60
2022-12-25T03:02:06.729Z,7.80
2022-12-25T03:03:06.680Z,7.20
2022-12-25T03:04:06.579Z,7.70
2022-12-25T03:05:06.584Z,7.90
2022-12-25T03:06:06.581Z,7.70
2022-12-25T03:07:06.557Z,7.70
2022-12-25T03:08:06.527Z,8.10
2022-12-25T03:09:06.526Z,7.30
2022-12-25T03:10:06.520Z,7.70
2022-12-25T03:11:06.505Z,7.40
2022-12-25T03:12:06.480Z,7.00
2022-12-25T03:13:06.523Z,7.50
2022-12-25T03:14:06.460Z,7.40
2022-12-25T03:15:06.483Z,7.10
2022-12-25T03:16:06.455Z,6.80
2022-12-25T03:17:06.516Z,7.60
2022-12-25T03:18:06.438Z,7.30
2022-12-25T03:19:06.420Z,7.30
2022-12-25T03:20:06.412Z,7.60
2022-12-25T03:21:06.399Z,7.70
2022-12-25T03:22:06.383Z,8.90
2022-12-25T03:23:06.374Z,8.10
2022-12-25T03:24:06.373Z,8.00
2022-12-25T03:25:06.340Z,7.90
2022-12-25T03:26:06.351Z,9.00
2022-12-25T03:27:06.322Z,9.60
2022-12-25T03:28:06.313Z,9.60
2022-12-25T03:29:06.348Z,8.40
2022-12-25T03:30:06.292Z,8.80
2022-12-25T03:31:06.409Z,9.40
2022-12-25T03:32:06.273Z,8.40
2022-12-25T03:33:17.967Z,8.20
2022-12-25T03:34:06.255Z,7.50
2022-12-25T03:35:06.593Z,7.60
2022-12-25T03:36:06.232Z,7.60
2022-12-25T03:37:06.221Z,7.90
2022-12-25T03:38:06.203Z,8.50
2022-12-25T03:39:06.199Z,7.70
2022-12-25T03:40:06.187Z,7.50
2022-12-25T03:41:06.176Z,6.90
2022-12-25T03:42:06.182Z,7.10
2022-12-25T03:43:06.168Z,6.60
2022-12-25T03:44:06.155Z,6.80
2022-12-25T03:45:06.142Z,6.10
2022-12-25T03:46:06.184Z,6.80
2022-12-25T03:47:06.111Z,6.70
2022-12-25T03:48:06.125Z,6.20
2022-12-25T03:49:06.100Z,6.10
2022-12-25T03:50:06.086Z,6.80
2022-12-25T03:51:06.057Z,5.80
2022-12-25T03:52:06.047Z,6.40
2022-12-25T03:53:06.036Z,5.70
2022-12-25T03:54:06.041Z,5.90
2022-12-25T03:55:06.024Z,5.70
2022-12-25T03:56:06.012Z,6.40
2022-12-25T03:57:06.027Z,6.20
2022-12-25T03:58:06.005Z,5.80
2022-12-25T03:59:06.001Z,7.20
2022-12-25T04:00:05.977Z,6.20
2022-12-25T04:01:06.064Z,6.40
2022-12-25T04:02:06.149Z,5.90
2022-12-25T04:03:06.005Z,5.80
2022-12-25T04:04:05.925Z,5.50
2022-12-25T04:05:05.904Z,5.40
2022-12-25T04:06:05.906Z,6.40
2022-12-25T04:07:05.896Z,5.60
2022-12-25T04:08:05.903Z,6.10
2022-12-25T04:09:05.899Z,5.70
2022-12-25T04:10:05.869Z,5.70
2022-12-25T04:11:05.988Z,5.30
2022-12-25T04:12:05.886Z,5.30
2022-12-25T04:13:05.818Z,5.50
2022-12-25T04:14:05.819Z,5.90
2022-12-25T04:15:05.808Z,5.30
2022-12-25T04:16:05.872Z,5.80
2022-12-25T04:17:05.794Z,5.40
2022-12-25T04:18:05.788Z,5.70
2022-12-25T04:19:05.769Z,6.00
2022-12-25T04:20:05.769Z,6.30
2022-12-25T04:21:05.735Z,5.40
2022-12-25T04:22:05.726Z,5.30
2022-12-25T04:23:05.729Z,5.40
2022-12-25T04:24:05.704Z,5.30
2022-12-25T04:25:05.714Z,6.00
2022-12-25T04:26:05.700Z,6.10
2022-12-25T04:27:05.677Z,5.40
2022-12-25T04:28:05.673Z,5.40
2022-12-25T04:29:05.662Z,6.40
2022-12-25T04:30:05.693Z,5.80
2022-12-25T04:31:05.699Z,5.80
2022-12-25T04:32:05.617Z,6.00
2022-12-25T04:33:05.624Z,5.50
2022-12-25T04:34:05.615Z,5.80
2022-12-25T04:35:05.613Z,5.40
2022-12-25T04:36:05.575Z,5.60
2022-12-25T04:37:05.575Z,5.80
2022-12-25T04:38:05.573Z,5.60
2022-12-25T04:39:05.549Z,5.30
2022-12-25T04:40:05.545Z,5.40
2022-12-25T04:41:05.529Z,5.60
2022-12-25T04:42:05.534Z,5.70
2022-12-25T04:43:05.516Z,5.40
2022-12-25T04:44:05.487Z,5.40
2022-12-25T04:45:05.481Z,5.40
2022-12-25T04:46:05.628Z,5.70
2022-12-25T04:47:10.974Z,5.50
2022-12-25T04:48:05.445Z,6.20
2022-12-25T04:49:05.450Z,6.00
2022-12-25T04:50:05.469Z,6.30
2022-12-25T04:51:05.433Z,6.30
2022-12-25T04:52:05.414Z,5.50
2022-12-25T04:53:05.391Z,5.60
2022-12-25T04:54:05.389Z,5.60
2022-12-25T04:55:05.374Z,5.70
2022-12-25T04:56:05.357Z,6.00
2022-12-25T04:57:05.355Z,5.50
2022-12-25T04:58:05.351Z,5.70
2022-12-25T04:59:05.333Z,5.70
2022-12-25T05:00:12.358Z,5.40
2022-12-25T05:01:05.298Z,5.90
2022-12-25T05:02:05.391Z,5.40
2022-12-25T05:03:05.360Z,5.60
2022-12-25T05:04:05.276Z,5.60
2022-12-25T05:05:05.285Z,5.10
2022-12-25T05:06:05.250Z,5.10
2022-12-25T05:07:05.267Z,5.20
2022-12-25T05:08:05.227Z,5.60
2022-12-25T05:09:05.212Z,5.50
2022-12-25T05:10:05.207Z,5.10
2022-12-25T05:11:05.195Z,5.10
2022-12-25T05:12:05.197Z,5.70
2022-12-25T05:13:05.172Z,5.30
2022-12-25T05:14:05.180Z,4.90
2022-12-25T05:15:05.165Z,5.00
2022-12-25T05:16:05.198Z,5.30
2022-12-25T05:17:05.151Z,4.80
2022-12-25T05:18:05.126Z,5.50
2022-12-25T05:19:05.111Z,5.00
2022-12-25T05:20:05.122Z,5.40
2022-12-25T05:21:05.100Z,5.20
2022-12-25T05:22:05.085Z,4.80
2022-12-25T05:23:05.058Z,5.40
2022-12-25T05:24:05.066Z,5.10
2022-12-25T05:25:05.042Z,5.00
2022-12-25T05:26:05.044Z,5.20
2022-12-25T05:27:05.033Z,5.00
2022-12-25T05:28:05.013Z,5.10
2022-12-25T05:29:05.004Z,5.20
2022-12-25T05:30:05.010Z,5.70
2022-12-25T05:31:05.055Z,5.40
2022-12-25T05:32:04.963Z,5.30
2022-12-25T05:33:04.949Z,5.70
2022-12-25T05:34:04.939Z,5.60
2022-12-25T05:35:04.946Z,5.90
2022-12-25T05:36:04.963Z,5.50
2022-12-25T05:37:04.933Z,4.90
2022-12-25T05:38:04.928Z,5.60
2022-12-25T05:39:04.891Z,5.60
2022-12-25T05:40:04.988Z,5.50
2022-12-25T05:41:04.896Z,5.00
2022-12-25T05:42:04.856Z,5.10
2022-12-25T05:43:04.845Z,5.00
2022-12-25T05:44:04.836Z,4.50
2022-12-25T05:45:04.832Z,5.40
2022-12-25T05:46:04.924Z,5.30
2022-12-25T05:47:04.976Z,5.70
2022-12-25T05:48:04.808Z,6.20
2022-12-25T05:49:04.779Z,5.20
2022-12-25T05:50:04.783Z,6.00
2022-12-25T05:51:04.755Z,5.40
2022-12-25T05:52:04.758Z,5.70
2022-12-25T05:53:08.305Z,5.50
2022-12-25T05:54:04.728Z,5.10
2022-12-25T05:55:04.726Z,5.60
2022-12-25T05:56:04.709Z,5.60
2022-12-25T05:57:04.703Z,5.60
2022-12-25T05:58:04.737Z,5.20
2022-12-25T05:59:04.670Z,5.40
2022-12-25T06:00:04.660Z,5.20
2022-12-25T06:01:04.680Z,5.90
2022-12-25T06:02:04.735Z,5.30
2022-12-25T06:03:04.819Z,4.70
2022-12-25T06:04:10.162Z,5.10
2022-12-25T06:05:04.617Z,4.90
2022-12-25T06:06:04.594Z,4.80
2022-12-25T06:07:04.619Z,5.10
2022-12-25T06:08:04.593Z,5.20
2022-12-25T06:09:04.583Z,4.60
2022-12-25T06:10:04.580Z,4.30
2022-12-25T06:11:04.551Z,4.70
2022-12-25T06:12:04.542Z,4.60
2022-12-25T06:13:04.539Z,4.70
2022-12-25T06:14:04.525Z,4.90
2022-12-25T06:15:04.528Z,4.90
